Hovedside
METAR-TAF:

METAR-TAF

Lufthavner :

Kramfors, Sverige

Kramfors lufthavn

breddegrad: 63-03N, lengdegrad: 017-46E, høyde over havet: 10 m

Gjeldene værobservasjon

Denne rapporten ble laget for 21 minutter siden, klokken 22:20 UTC
Vind 2 kt fra skiftende retning
Temperatur 14°C
Luftfuktighet 94%
Trykk 1015 hPa
Sikt: 3300 m
dis

METAR: ESNK 242220Z AUTO VRB02KT 3300 BR OVC055/// 14/13 Q1015 REDZ

Tid: 00:41 (22:41 UTC)


TAF: fraværende

Værobservasjoner og værvarsel for over 4000 flyplasser (METAR- og TAF-rapporter).

Tilgjengelige stasjoner er representert av de røde og gule prikkene på kartet.

Hold musepekeren over prikken for å se navnet på stasjonen.

Klikk så for å se værobservasjoner og -varsler.

For å forandre kartet kan du klikke på den grønne knappen med svart kryss for å zoome inn, på den grønne knappen med strek for å zoome ut, eller på de grønne pilene for å se tilstøtende kart.


METAR-TAF: